Startpagina
METAR-TAF:

METAR-TAF

Vliegvelden :

Koeweit, Koeweit

breedte: 29-13N, lengte: 047-59E, hoogte: 55 m

Actueel weer

Dit bericht is 6 minuten geleden gemaakt, om 10:00 UTC
Wind 14 kt uit het westen
Temperatuur 24°C
Vochtigheid 25%
Druk 1014 hPa
Zicht: 8000 m
Gebroken wolken op 4000 ft

METAR: OKBK 191000Z 27014KT 8000 BKN040 24/03 Q1014 NOSIG

Tijdstip: 13:06 (10:06 UTC)

Verwachting

Dit bericht is 5 uur en het 21 minuten geleden gemaakt, om 04:45 UTC
Verwachting geldig van 19 om 06 UTC tot 20 om 12 UTC
Wind 3 kt uit variabele richting
Zicht: 4000 m
Onbewolkt
Heiigheid
Tijdelijke
van 19 om 06 UTC tot 19 om 10 UTC
Zicht: 1500 m
Wijzigt naar
van 19 om 11 UTC tot 19 om 13 UTC
Wind 12 kt uit het noordwesten

TAF: OKBK 190445Z 1906/2012 VRB03KT 4000 HZ SKC TEMPO 1906/1910 1500 BECMG 1911/1913 32012KT

Waarnemingen en weersverwachtingen van meer dan 4000 vliegvelden (METAR en TAF).

De beschikbare stations zijn de gele en rode punten op de kaart.

Ga met uw muis naar het station om de naam te zien.

Klik dan om waarnemingen en weersverwachtingen te zien.

kaart wijzigen: klik op de groene knoppen met een zwart kruis om in te zoomen, op de groene knop met een streepje om uit te zoomen of op de groene pijlen voor aangrenzende kaarten.


METAR-TAF: